Time;durP1;ratioP1;P1;durP2;ratioP2;P2;SDS_P1;SDS_P2;PMS_P1;PMS_P2;Temp;Humidity;BMP_temperature;BMP_pressure;BME280_temperature;BME280_humidity;BME280_pressure;Samples;Min_cycle;Max_cycle;Signal;HPM_P1;HPM_P2
2021/03/26 07:01:41;;;;;;;;;;;;;;;;;;5573082;23;1638;-66
2021/03/26 07:04:06;;;;;;;;;;;;;;;;;;4980261;28;1915;-65
2021/03/26 07:06:49;;;;;;;;;;;;;;;;;;4958350;28;798;-66
2021/03/26 07:09:30;;;;;;;;;;;;;;;;;;4958114;28;914;-66
2021/03/26 07:12:01;;;;;;;;;;;;;;;;;;4956576;29;1363;-66
2021/03/26 07:14:33;;;;;;;;;;;;;;;;;;4957992;28;864;-66
2021/03/26 07:17:17;;;;;;;;;;;;;;;;;;4956879;28;1296;-67
2021/03/26 07:20:01;;;;;;;;;;;;;;;;;;4957853;28;871;-67
2021/03/26 07:22:26;;;;;;;;;;;;;;;;;;4956543;28;1338;-66
2021/03/26 07:25:10;;;;;;;;;;;;;;;;;;4957396;28;1964;-66
2021/03/26 07:27:54;;;;;;;;;;;;;;;;;;4956516;28;1334;-67
2021/03/26 07:30:38;;;;;;;;;;;;;;;;;;4957441;28;843;-67
2021/03/26 07:33:15;;;;;;;;;;;;;;;;;;4957322;28;959;-66
2021/03/26 07:36:19;;;;;;;;;;;;;;;;;;4957639;28;857;-66
2021/03/26 07:38:59;;;;;;;;;;;;;;;;;;4936339;29;1228;-67
2021/03/26 07:41:43;;;;;;;;;;;;;;;;;;4936131;29;1350;-67
2021/03/26 07:44:08;;;;;;;;;;;;;;;;;;4950731;28;1891;-67
2021/03/26 07:46:36;;;;;;;;;;;;;;;;;;4957297;28;949;-65
2021/03/26 07:49:02;;;;;;;;;;;;;;;;;;4957341;28;846;-66
2021/03/26 07:51:31;;;;;;;;;;;;;;;;;;4957269;28;1322;-66
2021/03/26 07:54:05;;;;;;;;;;;;;;;;;;4955617;28;1203;-65
2021/03/26 07:56:41;;;;;;;;;;;;;;;;;;4957249;28;873;-66
2021/03/26 07:59:09;;;;;;;;;;;;;;;;;;4957220;28;865;-67
2021/03/26 08:01:37;;;;;;;;;;;;;;;;;;4957144;28;1315;-66
2021/03/26 08:04:05;;;;;;;;;;;;;;;;;;4955712;29;1207;-66
2021/03/26 08:06:34;;;;;;;;;;;;;;;;;;4957367;28;797;-66
2021/03/26 08:09:19;;;;;;;;;;;;;;;;;;4957048;28;881;-66
2021/03/26 08:12:03;;;;;;;;;;;;;;;;;;4952687;29;1365;-67
2021/03/26 08:14:36;;;;;;;;;;;;;;;;;;4955511;28;920;-66
2021/03/26 08:17:20;;;;;;;;;;;;;;;;;;4955628;28;1333;-66
2021/03/26 08:19:46;;;;;;;;;;;;;;;;;;4956831;28;793;-67
2021/03/26 08:22:30;;;;;;;;;;;;;;;;;;4956874;28;1287;-66
2021/03/26 08:25:13;;;;;;;;;;;;;;;;;;4956568;28;1953;-66
2021/03/26 08:27:54;;;;;;;;;;;;;;;;;;4957040;28;960;-65
2021/03/26 08:30:24;;;;;;;;;;;;;;;;;;4956938;28;838;-66
2021/03/26 08:33:09;;;;;;;;;;;;;;;;;;4955437;28;1465;-68
2021/03/26 08:35:46;;;;;;;;;;;;;;;;;;4956684;28;899;-68
2021/03/26 08:38:26;;;;;;;;;;;;;;;;;;4955438;29;1561;-67
2021/03/26 08:40:57;;;;;;;;;;;;;;;;;;4956671;28;1335;-66
2021/03/26 08:43:23;;;;;;;;;;;;;;;;;;4955909;28;908;-67
2021/03/26 08:45:54;;;;;;;;;;;;;;;;;;4956462;28;1890;-67
2021/03/26 08:48:26;;;;;;;;;;;;;;;;;;4955495;28;1281;-66
2021/03/26 08:51:01;;;;;;;;;;;;;;;;;;4955378;29;2581;-66
2021/03/26 08:53:29;;;;;;;;;;;;;;;;;;4955177;28;1360;-67
2021/03/26 08:56:13;;;;;;;;;;;;;;;;;;4955336;29;1331;-67
2021/03/26 08:58:53;;;;;;;;;;;;;;;;;;4955412;28;1216;-67
2021/03/26 09:01:18;;;;;;;;;;;;;;;;;;4956282;29;1418;-68
2021/03/26 09:04:02;;;;;;;;;;;;;;;;;;4955304;29;1031;-66
2021/03/26 09:06:30;;;;;;;;;;;;;;;;;;4954931;28;1950;-68
2021/03/26 09:09:14;;;;;;;;;;;;;;;;;;4956516;28;853;-66
2021/03/26 09:11:55;;;;;;;;;;;;;;;;;;4956180;28;1315;-68
2021/03/26 09:14:26;;;;;;;;;;;;;;;;;;4954796;29;1197;-67
2021/03/26 09:16:55;;;;;;;;;;;;;;;;;;4956023;28;821;-66
2021/03/26 09:19:28;;;;;;;;;;;;;;;;;;4954784;28;1207;-68
2021/03/26 09:21:59;;;;;;;;;;;;;;;;;;4955821;28;1319;-66
2021/03/26 09:24:25;;;;;;;;;;;;;;;;;;4956115;28;1973;-67
2021/03/26 09:26:53;;;;;;;;;;;;;;;;;;4955931;28;837;-68
2021/03/26 09:29:28;;;;;;;;;;;;;;;;;;4955220;29;885;-67
2021/03/26 09:32:00;;;;;;;;;;;;;;;;;;4955006;28;1441;-67
2021/03/26 09:34:34;;;;;;;;;;;;;;;;;;4956032;28;900;-67
2021/03/26 09:37:18;;;;;;;;;;;;;;;;;;4955216;28;1130;-66
2021/03/26 09:39:44;;;;;;;;;;;;;;;;;;4956000;28;877;-67
2021/03/26 09:42:29;;;;;;;;;;;;;;;;;;4956170;28;1299;-68
2021/03/26 09:44:58;;;;;;;;;;;;;;;;;;4955847;28;1957;-66
2021/03/26 09:47:26;;;;;;;;;;;;;;;;;;4955890;28;927;-68
2021/03/26 09:49:52;;;;;;;;;;;;;;;;;;4956293;28;822;-67
2021/03/26 09:52:17;;;;;;;;;;;;;;;;;;4956016;28;1339;-68
2021/03/26 09:54:48;;;;;;;;;;;;;;;;;;4958314;28;897;-67
2021/03/26 09:57:16;;;;;;;;;;;;;;;;;;4959384;28;869;-67
2021/03/26 10:00:01;;;;;;;;;;;;;;;;;;4959157;28;798;-68
2021/03/26 10:02:44;;;;;;;;;;;;;;;;;;4957607;29;1378;-68
2021/03/26 10:05:20;;;;;;;;;;;;;;;;;;4958116;29;1883;-66
2021/03/26 10:08:05;;;;;;;;;;;;;;;;;;4958181;28;915;-70
2021/03/26 10:13:02;;;;;;;;;;;;;;;;;;4957886;29;847;-67
2021/03/26 10:15:39;;;;;;;;;;;;;;;;;;4959036;28;1197;-67
2021/03/26 10:18:19;;;;;;;;;;;;;;;;;;4959231;28;987;-67
2021/03/26 10:20:52;;;;;;;;;;;;;;;;;;4958846;28;1397;-68
2021/03/26 10:23:26;;;;;;;;;;;;;;;;;;4957781;29;877;-68
2021/03/26 10:25:54;;;;;;;;;;;;;;;;;;4958876;28;1911;-67
2021/03/26 10:28:31;;;;;;;;;;;;;;;;;;4959066;28;910;-66
2021/03/26 10:31:04;;;;;;;;;;;;;;;;;;4958900;28;1353;-68
2021/03/26 10:33:32;;;;;;;;;;;;;;;;;;4958784;28;885;-68
2021/03/26 10:35:57;;;;;;;;;;;;;;;;;;4958665;28;976;-66
2021/03/26 10:38:46;;;;;;;;;;;;;;;;;;4958885;28;932;-67
2021/03/26 10:41:18;;;;;;;;;;;;;;;;;;4952067;29;1378;-68
2021/03/26 10:43:49;;;;;;;;;;;;;;;;;;4964462;28;1661;-69
2021/03/26 10:46:22;;;;;;;;;;;;;;;;;;4966792;28;1960;-68
2021/03/26 10:48:58;;;;;;;;;;;;;;;;;;4966403;28;1491;-69
2021/03/26 10:51:26;;;;;;;;;;;;;;;;;;4966653;28;1444;-68
2021/03/26 10:53:55;;;;;;;;;;;;;;;;;;4965983;28;1503;-69
2021/03/26 10:56:39;;;;;;;;;;;;;;;;;;4963630;28;1268;-68
2021/03/26 10:59:09;;;;;;;;;;;;;;;;;;4965394;28;1485;-68
2021/03/26 11:01:39;;;;;;;;;;;;;;;;;;4964836;28;1401;-68
2021/03/26 11:04:16;;;;;;;;;;;;;;;;;;4967503;28;1343;-67
2021/03/26 11:06:48;;;;;;;;;;;;;;;;;;4965423;28;1598;-66
2021/03/26 11:09:16;;;;;;;;;;;;;;;;;;4965144;28;1336;-67
2021/03/26 11:11:55;;;;;;;;;;;;;;;;;;4961676;28;1516;-67
2021/03/26 11:14:41;;;;;;;;;;;;;;;;;;4967072;28;1430;-67
2021/03/26 11:17:17;;;;;;;;;;;;;;;;;;4967483;28;1581;-68
2021/03/26 11:19:47;;;;;;;;;;;;;;;;;;4966917;28;1459;-66
2021/03/26 11:22:16;;;;;;;;;;;;;;;;;;4966515;28;1583;-68
2021/03/26 11:24:44;;;;;;;;;;;;;;;;;;4967375;28;1898;-67
2021/03/26 11:27:17;;;;;;;;;;;;;;;;;;4965358;28;1702;-67
2021/03/26 11:29:45;;;;;;;;;;;;;;;;;;4965540;28;1762;-67
2021/03/26 11:32:20;;;;;;;;;;;;;;;;;;4965042;28;1738;-66
2021/03/26 11:35:04;;;;;;;;;;;;;;;;;;4965770;28;1137;-67
2021/03/26 11:37:37;;;;;;;;;;;;;;;;;;4965557;28;1337;-67
2021/03/26 11:40:17;;;;;;;;;;;;;;;;;;4965878;28;1499;-67
2021/03/26 11:42:47;;;;;;;;;;;;;;;;;;4965728;28;2317;-67
2021/03/26 11:45:31;;;;;;;;;;;;;;;;;;4965126;28;1926;-68
2021/03/26 11:48:00;;;;;;;;;;;;;;;;;;4969318;28;1380;-66
2021/03/26 11:50:27;;;;;;;;;;;;;;;;;;4962088;28;1360;-67
2021/03/26 11:52:59;;;;;;;;;;;;;;;;;;4956556;29;1027;-68
2021/03/26 11:55:30;;;;;;;;;;;;;;;;;;4955965;29;1194;-66
2021/03/26 11:58:12;;;;;;;;;;;;;;;;;;4957398;29;956;-67
2021/03/26 12:00:38;;;;;;;;;;;;;;;;;;4955747;29;1686;-67
2021/03/26 12:03:06;;;;;;;;;;;;;;;;;;4955773;29;1360;-67
2021/03/26 12:05:50;;;;;;;;;;;;;;;;;;4957142;29;1910;-68
2021/03/26 12:08:22;;;;;;;;;;;;;;;;;;4957180;29;871;-68
2021/03/26 12:11:10;;;;;;;;;;;;;;;;;;4957214;29;1295;-68
2021/03/26 12:13:44;;;;;;;;;;;;;;;;;;4956131;29;1364;-68
2021/03/26 12:16:22;;;;;;;;;;;;;;;;;;4955826;28;834;-66
2021/03/26 12:18:51;;;;;;;;;;;;;;;;;;4956813;29;956;-66
2021/03/26 12:21:16;;;;;;;;;;;;;;;;;;4956734;29;1315;-66
2021/03/26 12:23:50;;;;;;;;;;;;;;;;;;4955221;29;1309;-68
2021/03/26 12:26:34;;;;;;;;;;;;;;;;;;4956586;29;1970;-67
2021/03/26 12:28:59;;;;;;;;;;;;;;;;;;4956753;29;1009;-67
2021/03/26 12:31:37;;;;;;;;;;;;;;;;;;4955272;29;1381;-67
2021/03/26 12:34:07;;;;;;;;;;;;;;;;;;4956064;29;928;-69
2021/03/26 12:36:51;;;;;;;;;;;;;;;;;;4955447;29;1221;-68
2021/03/26 12:39:37;;;;;;;;;;;;;;;;;;4956622;29;995;-67
2021/03/26 12:42:08;;;;;;;;;;;;;;;;;;4956820;29;1315;-67
2021/03/26 12:44:35;;;;;;;;;;;;;;;;;;4955501;29;1957;-66
2021/03/26 12:47:19;;;;;;;;;;;;;;;;;;4955183;28;1751;-67
2021/03/26 12:49:47;;;;;;;;;;;;;;;;;;4956667;29;895;-67
2021/03/26 12:52:31;;;;;;;;;;;;;;;;;;4956525;29;1357;-67
2021/03/26 12:55:02;;;;;;;;;;;;;;;;;;4955999;29;908;-67
2021/03/26 12:57:48;;;;;;;;;;;;;;;;;;4954969;29;1233;-68
2021/03/26 13:00:15;;;;;;;;;;;;;;;;;;4955785;28;1204;-67
2021/03/26 13:02:54;;;;;;;;;;;;;;;;;;4956342;29;1323;-68
2021/03/26 13:05:25;;;;;;;;;;;;;;;;;;4954514;29;1948;-67
2021/03/26 13:07:57;;;;;;;;;;;;;;;;;;4955056;29;960;-67
2021/03/26 13:10:25;;;;;;;;;;;;;;;;;;4955863;29;901;-68
2021/03/26 13:12:52;;;;;;;;;;;;;;;;;;4955093;29;1366;-67
2021/03/26 13:15:22;;;;;;;;;;;;;;;;;;4955674;29;834;-66
2021/03/26 13:17:48;;;;;;;;;;;;;;;;;;4954986;29;1197;-68
2021/03/26 13:20:15;;;;;;;;;;;;;;;;;;4956005;29;898;-66
2021/03/26 13:22:49;;;;;;;;;;;;;;;;;;4956104;29;1339;-67
2021/03/26 13:25:20;;;;;;;;;;;;;;;;;;4955433;29;1969;-67
2021/03/26 13:27:55;;;;;;;;;;;;;;;;;;4955917;28;876;-67
2021/03/26 13:30:23;;;;;;;;;;;;;;;;;;4958647;29;874;-67
2021/03/26 13:33:10;;;;;;;;;;;;;;;;;;4959773;29;1438;-68
2021/03/26 13:35:38;;;;;;;;;;;;;;;;;;4959728;29;944;-67
2021/03/26 13:38:21;;;;;;;;;;;;;;;;;;4958894;29;838;-68
2021/03/26 13:40:50;;;;;;;;;;;;;;;;;;4958355;29;1408;-68
2021/03/26 13:43:15;;;;;;;;;;;;;;;;;;4958970;28;797;-68
2021/03/26 13:45:46;;;;;;;;;;;;;;;;;;4958398;29;1961;-66
2021/03/26 13:48:16;;;;;;;;;;;;;;;;;;4959642;29;807;-67
2021/03/26 13:50:44;;;;;;;;;;;;;;;;;;4959633;29;1303;-68
2021/03/26 13:53:19;;;;;;;;;;;;;;;;;;4958999;29;857;-68
2021/03/26 13:55:49;;;;;;;;;;;;;;;;;;4959417;29;893;-67
2021/03/26 13:58:26;;;;;;;;;;;;;;;;;;4959553;29;857;-67
2021/03/26 14:00:54;;;;;;;;;;;;;;;;;;4959378;29;1255;-66
2021/03/26 14:03:32;;;;;;;;;;;;;;;;;;4958816;29;869;-67
2021/03/26 14:06:07;;;;;;;;;;;;;;;;;;4959241;29;1964;-67
2021/03/26 14:08:47;;;;;;;;;;;;;;;;;;4958112;29;905;-67
2021/03/26 14:11:16;;;;;;;;;;;;;;;;;;4957712;29;2389;-66
2021/03/26 14:13:45;;;;;;;;;;;;;;;;;;4958699;29;978;-68
2021/03/26 14:16:19;;;;;;;;;;;;;;;;;;4959146;29;905;-66
2021/03/26 14:18:47;;;;;;;;;;;;;;;;;;4959351;29;796;-67
2021/03/26 14:21:22;;;;;;;;;;;;;;;;;;4958930;29;1303;-68
2021/03/26 14:23:51;;;;;;;;;;;;;;;;;;4958459;29;864;-66
2021/03/26 14:26:19;;;;;;;;;;;;;;;;;;4958857;29;1964;-66
2021/03/26 14:29:07;;;;;;;;;;;;;;;;;;4957679;29;1332;-67
2021/03/26 14:31:44;;;;;;;;;;;;;;;;;;4953689;29;1539;-67
2021/03/26 14:34:09;;;;;;;;;;;;;;;;;;4957014;29;1174;-67
2021/03/26 14:36:46;;;;;;;;;;;;;;;;;;4959109;29;1125;-67
2021/03/26 14:39:20;;;;;;;;;;;;;;;;;;4958147;28;857;-67
2021/03/26 14:41:52;;;;;;;;;;;;;;;;;;4956626;29;1367;-67
2021/03/26 14:44:20;;;;;;;;;;;;;;;;;;4956715;29;1217;-66
2021/03/26 14:46:54;;;;;;;;;;;;;;;;;;4958826;29;878;-66
2021/03/26 14:49:31;;;;;;;;;;;;;;;;;;4958566;29;897;-67
2021/03/26 14:52:09;;;;;;;;;;;;;;;;;;4958413;29;1386;-67
2021/03/26 14:54:37;;;;;;;;;;;;;;;;;;4957799;29;826;-67
2021/03/26 14:57:16;;;;;;;;;;;;;;;;;;4957209;29;1228;-66
2021/03/26 14:59:44;;;;;;;;;;;;;;;;;;4957208;29;862;-66
2021/03/26 15:02:11;;;;;;;;;;;;;;;;;;4958225;29;1311;-66
2021/03/26 15:04:39;;;;;;;;;;;;;;;;;;4957622;29;1895;-66
2021/03/26 15:07:04;;;;;;;;;;;;;;;;;;4958026;29;917;-66
2021/03/26 15:09:32;;;;;;;;;;;;;;;;;;4957285;29;842;-66
2021/03/26 15:12:04;;;;;;;;;;;;;;;;;;4958286;29;1457;-67
2021/03/26 15:14:48;;;;;;;;;;;;;;;;;;4957535;29;840;-66
2021/03/26 15:17:31;;;;;;;;;;;;;;;;;;4956531;29;1470;-66
2021/03/26 15:19:58;;;;;;;;;;;;;;;;;;4958165;29;881;-66
2021/03/26 15:22:34;;;;;;;;;;;;;;;;;;4956638;29;1346;-67
2021/03/26 15:25:03;;;;;;;;;;;;;;;;;;4957124;29;1894;-69
2021/03/26 15:27:31;;;;;;;;;;;;;;;;;;4957807;29;870;-68
2021/03/26 15:30:09;;;;;;;;;;;;;;;;;;4957587;29;833;-70
2021/03/26 15:32:34;;;;;;;;;;;;;;;;;;4956457;29;1350;-68
2021/03/26 15:35:13;;;;;;;;;;;;;;;;;;4955869;29;1218;-69
2021/03/26 15:38:11;;;;;;;;;;;;;;;;;;4957757;29;1260;-69
2021/03/26 15:40:44;;;;;;;;;;;;;;;;;;4924908;29;1487;-69
2021/03/26 15:43:16;;;;;;;;;;;;;;;;;;4957375;29;841;-68
2021/03/26 15:45:45;;;;;;;;;;;;;;;;;;4957625;29;1902;-69
2021/03/26 15:48:29;;;;;;;;;;;;;;;;;;4956847;29;1503;-69
2021/03/26 15:51:10;;;;;;;;;;;;;;;;;;4956772;28;1295;-69
2021/03/26 15:53:41;;;;;;;;;;;;;;;;;;4957393;29;980;-68
2021/03/26 15:56:12;;;;;;;;;;;;;;;;;;4956331;29;1182;-69
2021/03/26 15:58:43;;;;;;;;;;;;;;;;;;4957247;29;985;-69
2021/03/26 16:01:27;;;;;;;;;;;;;;;;;;4957238;29;1417;-68
2021/03/26 16:03:58;;;;;;;;;;;;;;;;;;4957244;29;897;-69
2021/03/26 16:06:37;;;;;;;;;;;;;;;;;;4957219;29;1906;-70
2021/03/26 16:09:28;;;;;;;;;;;;;;;;;;4957235;29;1483;-69
2021/03/26 16:11:57;;;;;;;;;;;;;;;;;;4952592;29;1287;-70
2021/03/26 16:14:32;;;;;;;;;;;;;;;;;;4955705;29;1133;-69
2021/03/26 16:17:13;;;;;;;;;;;;;;;;;;4955697;29;1332;-69
2021/03/26 16:19:51;;;;;;;;;;;;;;;;;;4957017;29;1071;-70
2021/03/26 16:22:19;;;;;;;;;;;;;;;;;;4956824;29;1478;-68
2021/03/26 16:24:52;;;;;;;;;;;;;;;;;;4956677;29;1958;-70
2021/03/26 16:27:36;;;;;;;;;;;;;;;;;;4957031;29;815;-69
2021/03/26 16:30:16;;;;;;;;;;;;;;;;;;4955679;29;1226;-69
2021/03/26 16:32:48;;;;;;;;;;;;;;;;;;4956814;29;1370;-69
2021/03/26 16:35:28;;;;;;;;;;;;;;;;;;4956494;29;952;-70
2021/03/26 16:38:12;;;;;;;;;;;;;;;;;;4955391;29;1330;-70
2021/03/26 16:40:43;;;;;;;;;;;;;;;;;;4956820;28;1414;-69
2021/03/26 16:43:36;;;;;;;;;;;;;;;;;;4955382;29;905;-69
2021/03/26 16:46:04;;;;;;;;;;;;;;;;;;4955335;29;1899;-69
2021/03/26 16:48:30;;;;;;;;;;;;;;;;;;4956623;29;917;-69
2021/03/26 16:51:14;;;;;;;;;;;;;;;;;;4956640;29;1299;-69
2021/03/26 16:53:45;;;;;;;;;;;;;;;;;;4956534;29;937;-69
2021/03/26 16:56:19;;;;;;;;;;;;;;;;;;4956441;29;952;-69
2021/03/26 16:58:44;;;;;;;;;;;;;;;;;;4956591;29;873;-71
2021/03/26 17:01:18;;;;;;;;;;;;;;;;;;4955452;29;1359;-70
2021/03/26 17:04:02;;;;;;;;;;;;;;;;;;4955565;29;869;-68
2021/03/26 17:06:55;;;;;;;;;;;;;;;;;;4956359;29;1981;-69
2021/03/26 17:09:34;;;;;;;;;;;;;;;;;;4956616;29;860;-68
2021/03/26 17:12:08;;;;;;;;;;;;;;;;;;4956404;29;1402;-70
2021/03/26 17:14:59;;;;;;;;;;;;;;;;;;4953835;28;1124;-68
2021/03/26 17:17:27;;;;;;;;;;;;;;;;;;4956255;28;869;-68
2021/03/26 17:20:01;;;;;;;;;;;;;;;;;;4956074;29;902;-68
2021/03/26 17:22:45;;;;;;;;;;;;;;;;;;4956223;29;1409;-69
2021/03/26 17:25:24;;;;;;;;;;;;;;;;;;4955930;29;1894;-68
2021/03/26 17:27:49;;;;;;;;;;;;;;;;;;4955371;28;1103;-69
2021/03/26 17:30:26;;;;;;;;;;;;;;;;;;4954671;28;1217;-70
2021/03/26 17:33:10;;;;;;;;;;;;;;;;;;4954864;28;1299;-69
2021/03/26 17:35:42;;;;;;;;;;;;;;;;;;4954682;29;1276;-68
2021/03/26 17:38:30;;;;;;;;;;;;;;;;;;4955949;29;822;-68
2021/03/26 17:41:04;;;;;;;;;;;;;;;;;;4956063;29;1437;-69
2021/03/26 17:43:48;;;;;;;;;;;;;;;;;;4955810;29;922;-69
2021/03/26 17:46:14;;;;;;;;;;;;;;;;;;4955885;28;1965;-69
2021/03/26 17:48:48;;;;;;;;;;;;;;;;;;4955981;29;1252;-69
2021/03/26 17:51:40;;;;;;;;;;;;;;;;;;4955309;29;1433;-69
2021/03/26 17:54:23;;;;;;;;;;;;;;;;;;4952694;28;1473;-69
2021/03/26 17:56:49;;;;;;;;;;;;;;;;;;4975292;28;1047;-69
2021/03/26 17:59:33;;;;;;;;;;;;;;;;;;4974790;28;1337;-69
2021/03/26 18:02:16;;;;;;;;;;;;;;;;;;4974680;28;1307;-69
2021/03/26 18:05:08;;;;;;;;;;;;;;;;;;4974963;28;1902;-69
2021/03/26 18:07:40;;;;;;;;;;;;;;;;;;5002599;28;1120;-70
2021/03/26 18:10:12;;;;;;;;;;;;;;;;;;4973709;28;1662;-70
2021/03/26 18:12:52;;;;;;;;;;;;;;;;;;4974816;28;1425;-70
2021/03/26 18:15:22;;;;;;;;;;;;;;;;;;4976809;28;864;-70
2021/03/26 18:17:56;;;;;;;;;;;;;;;;;;4978425;28;903;-69
2021/03/26 18:20:24;;;;;;;;;;;;;;;;;;4978342;28;977;-70
2021/03/26 18:23:07;;;;;;;;;;;;;;;;;;4978400;28;1315;-71
2021/03/26 18:25:51;;;;;;;;;;;;;;;;;;4977813;28;1960;-71
2021/03/26 18:28:25;;;;;;;;;;;;;;;;;;4976914;28;1233;-70
2021/03/26 18:30:59;;;;;;;;;;;;;;;;;;4976936;28;1496;-72
2021/03/26 18:33:24;;;;;;;;;;;;;;;;;;4976828;28;1356;-70
2021/03/26 18:36:09;;;;;;;;;;;;;;;;;;4978056;28;809;-69
2021/03/26 18:38:46;;;;;;;;;;;;;;;;;;4976803;28;1331;-70
2021/03/26 18:41:27;;;;;;;;;;;;;;;;;;4977986;28;1322;-71
2021/03/26 18:44:01;;;;;;;;;;;;;;;;;;4976395;28;1336;-70
2021/03/26 18:46:45;;;;;;;;;;;;;;;;;;4977961;28;1902;-71
2021/03/26 18:49:19;;;;;;;;;;;;;;;;;;4976645;28;853;-71
2021/03/26 18:51:55;;;;;;;;;;;;;;;;;;4978026;28;1299;-71
2021/03/26 18:54:25;;;;;;;;;;;;;;;;;;4977171;28;1480;-70
2021/03/26 18:57:01;;;;;;;;;;;;;;;;;;4977853;28;1040;-70
2021/03/26 18:59:45;;;;;;;;;;;;;;;;;;4976663;28;1246;-70
2021/03/26 19:02:16;;;;;;;;;;;;;;;;;;4976170;28;1464;-70
2021/03/26 19:04:42;;;;;;;;;;;;;;;;;;4976197;28;1930;-70
2021/03/26 19:07:13;;;;;;;;;;;;;;;;;;4976322;28;849;-70
2021/03/26 19:10:05;;;;;;;;;;;;;;;;;;4976396;28;1228;-70
2021/03/26 19:12:35;;;;;;;;;;;;;;;;;;4974608;28;1342;-69
2021/03/26 19:15:09;;;;;;;;;;;;;;;;;;4976161;28;837;-69
2021/03/26 19:17:35;;;;;;;;;;;;;;;;;;4973777;28;1383;-69
2021/03/26 19:20:10;;;;;;;;;;;;;;;;;;4975762;28;1217;-68
2021/03/26 19:22:41;;;;;;;;;;;;;;;;;;4977178;28;1386;-68
2021/03/26 19:25:12;;;;;;;;;;;;;;;;;;4977040;28;1969;-68
2021/03/26 19:27:49;;;;;;;;;;;;;;;;;;4975258;28;1387;-68
2021/03/26 19:30:14;;;;;;;;;;;;;;;;;;4976102;28;1192;-69
2021/03/26 19:32:39;;;;;;;;;;;;;;;;;;4976037;28;1448;-68
2021/03/26 19:35:05;;;;;;;;;;;;;;;;;;4976622;28;935;-68
2021/03/26 19:37:41;;;;;;;;;;;;;;;;;;4975903;28;1248;-68
2021/03/26 19:40:06;;;;;;;;;;;;;;;;;;4977090;28;853;-69
2021/03/26 19:42:35;;;;;;;;;;;;;;;;;;4976137;28;1354;-68
2021/03/26 19:45:15;;;;;;;;;;;;;;;;;;4976926;28;1902;-69
2021/03/26 19:47:44;;;;;;;;;;;;;;;;;;4976707;28;982;-69
2021/03/26 19:50:32;;;;;;;;;;;;;;;;;;4976766;28;925;-68
2021/03/26 19:53:24;;;;;;;;;;;;;;;;;;4960884;28;1463;-68
2021/03/26 19:56:08;;;;;;;;;;;;;;;;;;4956190;29;1397;-68
2021/03/26 19:58:37;;;;;;;;;;;;;;;;;;4956049;29;1289;-68
2021/03/26 20:01:23;;;;;;;;;;;;;;;;;;4955842;29;1316;-69
2021/03/26 20:03:48;;;;;;;;;;;;;;;;;;4957174;29;790;-68
2021/03/26 20:06:29;;;;;;;;;;;;;;;;;;4956028;29;1899;-68
2021/03/26 20:09:03;;;;;;;;;;;;;;;;;;4957379;29;875;-68
2021/03/26 20:11:33;;;;;;;;;;;;;;;;;;4955917;29;1748;-68
2021/03/26 20:14:01;;;;;;;;;;;;;;;;;;4955763;29;1119;-68
2021/03/26 20:16:44;;;;;;;;;;;;;;;;;;4957047;29;817;-68
2021/03/26 20:19:15;;;;;;;;;;;;;;;;;;4957280;29;882;-69
2021/03/26 20:21:59;;;;;;;;;;;;;;;;;;4956777;29;1383;-68
2021/03/26 20:24:27;;;;;;;;;;;;;;;;;;4955524;29;1542;-68
2021/03/26 20:26:52;;;;;;;;;;;;;;;;;;4956802;29;1890;-68
2021/03/26 20:29:35;;;;;;;;;;;;;;;;;;4955922;29;1392;-68
2021/03/26 20:32:07;;;;;;;;;;;;;;;;;;4956596;29;1307;-68
2021/03/26 20:34:35;;;;;;;;;;;;;;;;;;4956783;29;886;-68
2021/03/26 20:37:00;;;;;;;;;;;;;;;;;;4956775;28;881;-68
2021/03/26 20:39:40;;;;;;;;;;;;;;;;;;4955516;29;1324;-69
2021/03/26 20:42:06;;;;;;;;;;;;;;;;;;4955520;29;1489;-68
2021/03/26 20:44:36;;;;;;;;;;;;;;;;;;4956443;29;905;-68
2021/03/26 20:47:20;;;;;;;;;;;;;;;;;;4955319;29;1213;-68
2021/03/26 20:49:57;;;;;;;;;;;;;;;;;;4955517;29;1449;-68
2021/03/26 20:52:27;;;;;;;;;;;;;;;;;;4955215;29;1362;-68
2021/03/26 20:54:56;;;;;;;;;;;;;;;;;;4955021;29;925;-68
2021/03/26 20:57:24;;;;;;;;;;;;;;;;;;4954537;28;1140;-68
2021/03/26 20:59:58;;;;;;;;;;;;;;;;;;4954069;28;1064;-68
2021/03/26 21:02:36;;;;;;;;;;;;;;;;;;4956225;29;1331;-68
2021/03/26 21:05:09;;;;;;;;;;;;;;;;;;4954832;29;1976;-68
2021/03/26 21:07:50;;;;;;;;;;;;;;;;;;4956437;29;909;-68
2021/03/26 21:10:18;;;;;;;;;;;;;;;;;;4955135;29;1473;-69
2021/03/26 21:12:52;;;;;;;;;;;;;;;;;;4955280;29;1485;-68
2021/03/26 21:15:25;;;;;;;;;;;;;;;;;;4954821;29;984;-68
2021/03/26 21:18:17;;;;;;;;;;;;;;;;;;4956301;29;817;-67
2021/03/26 21:20:49;;;;;;;;;;;;;;;;;;4940888;29;1287;-68
2021/03/26 21:23:15;;;;;;;;;;;;;;;;;;4954582;29;890;-68
2021/03/26 21:25:49;;;;;;;;;;;;;;;;;;4954988;29;1966;-67
2021/03/26 21:28:18;;;;;;;;;;;;;;;;;;4956156;29;963;-68
2021/03/26 21:30:55;;;;;;;;;;;;;;;;;;4955991;29;1395;-67
2021/03/26 21:33:20;;;;;;;;;;;;;;;;;;4955928;29;1036;-67
2021/03/26 21:35:46;;;;;;;;;;;;;;;;;;4955921;29;893;-68
2021/03/26 21:38:25;;;;;;;;;;;;;;;;;;4954877;29;1282;-68
2021/03/26 21:40:53;;;;;;;;;;;;;;;;;;4954860;29;1303;-68
2021/03/26 21:43:23;;;;;;;;;;;;;;;;;;4954762;29;1230;-68
2021/03/26 21:46:08;;;;;;;;;;;;;;;;;;4956016;29;1902;-67
2021/03/26 21:48:36;;;;;;;;;;;;;;;;;;4955919;28;857;-68
2021/03/26 21:51:11;;;;;;;;;;;;;;;;;;4959198;29;1355;-68
2021/03/26 21:53:54;;;;;;;;;;;;;;;;;;4959390;29;890;-68
2021/03/26 21:56:38;;;;;;;;;;;;;;;;;;4958457;29;1192;-68
2021/03/26 21:59:09;;;;;;;;;;;;;;;;;;4958576;29;1716;-68
2021/03/26 22:01:53;;;;;;;;;;;;;;;;;;4959397;29;1386;-68
2021/03/26 22:04:26;;;;;;;;;;;;;;;;;;4959497;28;1460;-68
2021/03/26 22:07:03;;;;;;;;;;;;;;;;;;4959506;29;1902;-68
2021/03/26 22:09:37;;;;;;;;;;;;;;;;;;4959701;29;897;-68
2021/03/26 22:12:08;;;;;;;;;;;;;;;;;;4957956;29;1514;-68
2021/03/26 22:14:52;;;;;;;;;;;;;;;;;;4958883;29;940;-67
2021/03/26 22:17:29;;;;;;;;;;;;;;;;;;4958183;29;1209;-68
2021/03/26 22:19:57;;;;;;;;;;;;;;;;;;4958173;29;1318;-68
2021/03/26 22:22:39;;;;;;;;;;;;;;;;;;4958001;29;1425;-68
2021/03/26 22:25:07;;;;;;;;;;;;;;;;;;4957646;29;1968;-68
2021/03/26 22:27:42;;;;;;;;;;;;;;;;;;4957999;29;1214;-68
2021/03/26 22:30:27;;;;;;;;;;;;;;;;;;4958741;29;945;-68
2021/03/26 22:33:04;;;;;;;;;;;;;;;;;;4957801;29;1451;-68
2021/03/26 22:35:30;;;;;;;;;;;;;;;;;;4969530;28;1206;-69
2021/03/26 22:38:13;;;;;;;;;;;;;;;;;;4974921;28;1387;-69
2021/03/26 22:40:43;;;;;;;;;;;;;;;;;;4956832;28;1374;-69
2021/03/26 22:43:14;;;;;;;;;;;;;;;;;;4956297;28;1274;-70
2021/03/26 22:45:42;;;;;;;;;;;;;;;;;;4958363;28;1899;-70
2021/03/26 22:48:16;;;;;;;;;;;;;;;;;;4958359;29;898;-68
2021/03/26 22:50:44;;;;;;;;;;;;;;;;;;4958497;29;1343;-67
2021/03/26 22:53:22;;;;;;;;;;;;;;;;;;4957021;29;1197;-69
2021/03/26 22:55:59;;;;;;;;;;;;;;;;;;4958374;29;979;-68
2021/03/26 22:58:31;;;;;;;;;;;;;;;;;;4957544;29;843;-68
2021/03/26 23:00:59;;;;;;;;;;;;;;;;;;4957101;28;1316;-69
2021/03/26 23:03:42;;;;;;;;;;;;;;;;;;4958148;29;879;-69
2021/03/26 23:06:31;;;;;;;;;;;;;;;;;;4957998;29;1899;-68
2021/03/26 23:09:19;;;;;;;;;;;;;;;;;;4955448;29;1091;-68
2021/03/26 23:11:47;;;;;;;;;;;;;;;;;;4955119;29;1268;-68
2021/03/26 23:14:19;;;;;;;;;;;;;;;;;;4957949;29;878;-68
2021/03/26 23:16:55;;;;;;;;;;;;;;;;;;4956762;28;1669;-69
2021/03/26 23:19:22;;;;;;;;;;;;;;;;;;4956601;29;1202;-69
2021/03/26 23:21:50;;;;;;;;;;;;;;;;;;4956737;29;1437;-68
2021/03/26 23:24:17;;;;;;;;;;;;;;;;;;4957827;29;989;-69
2021/03/26 23:26:45;;;;;;;;;;;;;;;;;;4956568;29;1906;-69
2021/03/26 23:29:15;;;;;;;;;;;;;;;;;;4958025;29;882;-68
2021/03/26 23:31:43;;;;;;;;;;;;;;;;;;4956289;29;1454;-68
2021/03/26 23:34:11;;;;;;;;;;;;;;;;;;4956300;29;906;-68
2021/03/26 23:36:46;;;;;;;;;;;;;;;;;;4956709;29;882;-68
2021/03/26 23:39:13;;;;;;;;;;;;;;;;;;4956402;29;1342;-68
2021/03/26 23:41:40;;;;;;;;;;;;;;;;;;4956196;29;1366;-68
2021/03/26 23:44:07;;;;;;;;;;;;;;;;;;4957320;28;1032;-69
2021/03/26 23:46:48;;;;;;;;;;;;;;;;;;4956120;28;1915;-67
2021/03/26 23:49:15;;;;;;;;;;;;;;;;;;4957466;29;1404;-69
2021/03/26 23:51:56;;;;;;;;;;;;;;;;;;4956162;29;1386;-68
2021/03/26 23:54:25;;;;;;;;;;;;;;;;;;4957327;29;937;-69
2021/03/26 23:56:51;;;;;;;;;;;;;;;;;;4957670;29;810;-70
2021/03/26 23:59:19;;;;;;;;;;;;;;;;;;4957454;29;865;-68
